SWR785B EDDS-LSZH

Flight info

Callsign SWR785B
Flight time 0h 26m
Altitude 19000
Route SUL3H SUL T721 RILAX
Aircraft A321/M-SDE3FGHIRWY/LB1

Departure

Time 2026-04-26 22:11
Airport Stuttgart Airport (EDDS)

Arrival

Time 2026-04-26 22:37
Airport Zürich Airport (LSZH)
Time Latitude Longitude Altitude Speed Heading
2026-04-26 21:51 48.68912 9.19589 1289 ft 0 kts 342°
2026-04-26 22:04 48.68903 9.19594 1291 ft 4 kts 343°
2026-04-26 22:04 48.68881 9.19602 1290 ft 2 kts 349°
2026-04-26 22:05 48.68858 9.19602 1288 ft 4 kts 33°
2026-04-26 22:05 48.68842 9.19574 1290 ft 4 kts 71°
2026-04-26 22:05 48.68841 9.19566 1290 ft 0 kts 74°
2026-04-26 22:08 48.68841 9.19569 1290 ft 2 kts 75°
2026-04-26 22:08 48.68855 9.19651 1285 ft 13 kts 75°
2026-04-26 22:08 48.68881 9.19788 1287 ft 13 kts 74°
2026-04-26 22:08 48.68866 9.19878 1287 ft 8 kts 150°
2026-04-26 22:09 48.68819 9.19912 1288 ft 7 kts 139°
2026-04-26 22:09 48.68776 9.19978 1287 ft 15 kts 134°
2026-04-26 22:09 48.68711 9.20150 1285 ft 18 kts 102°
2026-04-26 22:09 48.68681 9.20334 1287 ft 18 kts 103°
2026-04-26 22:10 48.68673 9.20521 1285 ft 20 kts 82°
2026-04-26 22:10 48.68749 9.20931 1290 ft 74 kts 74°
2026-04-26 22:10 48.68953 9.22007 1288 ft 136 kts 74°
2026-04-26 22:10 48.69254 9.23573 1538 ft 160 kts 72°
2026-04-26 22:11 48.69542 9.25196 2241 ft 159 kts 75°
2026-04-26 22:11 48.69849 9.26850 2769 ft 171 kts 75°
2026-04-26 22:11 48.70200 9.28692 3048 ft 194 kts 75°
2026-04-26 22:11 48.70598 9.30765 3295 ft 217 kts 74°
2026-04-26 22:12 48.71047 9.33071 3709 ft 236 kts 74°
2026-04-26 22:12 48.71165 9.35552 4446 ft 242 kts 105°
2026-04-26 22:12 48.70323 9.37770 5185 ft 249 kts 137°
2026-04-26 22:12 48.68793 9.38954 5952 ft 252 kts 171°
2026-04-26 22:13 48.67050 9.38745 6692 ft 255 kts 203°
2026-04-26 22:13 48.65508 9.37423 7436 ft 257 kts 221°
2026-04-26 22:13 48.64284 9.35451 8148 ft 262 kts 238°
2026-04-26 22:13 48.63470 9.32905 8594 ft 276 kts 253°
2026-04-26 22:14 48.62839 9.30131 9324 ft 281 kts 253°
2026-04-26 22:14 48.62183 9.27326 10121 ft 285 kts 252°
2026-04-26 22:14 48.61345 9.24517 10468 ft 306 kts 242°
2026-04-26 22:14 48.60241 9.21620 10626 ft 330 kts 242°
2026-04-26 22:15 48.59056 9.18537 10869 ft 347 kts 242°
2026-04-26 22:15 48.57830 9.15354 11456 ft 353 kts 242°
2026-04-26 22:15 48.56590 9.12137 12117 ft 356 kts 242°
2026-04-26 22:15 48.55338 9.08885 12788 ft 360 kts 241°
2026-04-26 22:16 48.54070 9.05593 13472 ft 364 kts 241°
2026-04-26 22:16 48.52794 9.02282 14151 ft 367 kts 241°
2026-04-26 22:16 48.51506 8.98944 14731 ft 370 kts 241°
2026-04-26 22:16 48.50207 8.95572 15316 ft 373 kts 241°
2026-04-26 22:17 48.48898 8.92177 15880 ft 376 kts 241°
2026-04-26 22:17 48.47580 8.88760 16446 ft 379 kts 242°
2026-04-26 22:17 48.46245 8.85310 17006 ft 382 kts 242°
2026-04-26 22:17 48.44902 8.81838 17558 ft 385 kts 242°
2026-04-26 22:18 48.43559 8.78380 18067 ft 388 kts 242°
2026-04-26 22:18 48.42191 8.74856 18571 ft 391 kts 242°
2026-04-26 22:18 48.40813 8.71309 18912 ft 394 kts 242°
2026-04-26 22:18 48.39425 8.67741 19000 ft 398 kts 242°
2026-04-26 22:19 48.38001 8.64086 19017 ft 408 kts 242°
2026-04-26 22:19 48.36594 8.60455 19009 ft 397 kts 242°
2026-04-26 22:19 48.35199 8.56893 19018 ft 398 kts 239°
2026-04-26 22:19 48.33373 8.53683 19007 ft 411 kts 222°
2026-04-26 22:20 48.30923 8.51438 19015 ft 418 kts 203°
2026-04-26 22:20 48.29063 8.50653 19017 ft 421 kts 190°
2026-04-26 22:20 48.25126 8.50498 19017 ft 424 kts 180°
2026-04-26 22:20 48.22179 8.50582 19017 ft 424 kts 180°
2026-04-26 22:21 48.20223 8.50647 19014 ft 424 kts 180°
2026-04-26 22:21 48.17273 8.50747 18981 ft 422 kts 180°
2026-04-26 22:21 48.14367 8.50842 18738 ft 415 kts 180°
2026-04-26 22:21 48.10558 8.50954 18407 ft 412 kts 180°
2026-04-26 22:22 48.08626 8.51007 18224 ft 411 kts 180°
2026-04-26 22:22 48.04850 8.51106 17866 ft 408 kts 180°
2026-04-26 22:22 48.02016 8.51174 17601 ft 407 kts 180°
2026-04-26 22:22 48.00105 8.51219 17436 ft 406 kts 180°
2026-04-26 22:23 47.97292 8.51566 17174 ft 407 kts 171°
2026-04-26 22:23 47.94556 8.52646 16914 ft 406 kts 162°
2026-04-26 22:23 47.91877 8.53732 16656 ft 403 kts 174°
2026-04-26 22:23 47.89110 8.53583 16394 ft 397 kts 194°
2026-04-26 22:24 47.86502 8.52302 15980 ft 395 kts 203°
2026-04-26 22:24 47.83958 8.50781 15244 ft 392 kts 207°
2026-04-26 22:24 47.81718 8.48560 14517 ft 385 kts 223°
2026-04-26 22:24 47.79743 8.45899 13781 ft 382 kts 224°
2026-04-26 22:25 47.77800 8.43224 12989 ft 380 kts 225°
2026-04-26 22:25 47.75872 8.40565 12234 ft 377 kts 224°
2026-04-26 22:25 47.73962 8.37912 11471 ft 374 kts 224°
2026-04-26 22:25 47.72065 8.35279 10732 ft 372 kts 225°
2026-04-26 22:26 47.70191 8.32676 10165 ft 365 kts 224°
2026-04-26 22:26 47.68367 8.30100 9561 ft 359 kts 224°
2026-04-26 22:26 47.66584 8.27558 9007 ft 352 kts 225°
2026-04-26 22:26 47.64834 8.25071 8488 ft 344 kts 226°
2026-04-26 22:27 47.63416 8.22294 7998 ft 334 kts 245°
2026-04-26 22:27 47.62834 8.19027 7496 ft 325 kts 268°
2026-04-26 22:27 47.63163 8.15784 7010 ft 316 kts 292°
2026-04-26 22:27 47.64324 8.13097 6522 ft 308 kts 317°
2026-04-26 22:28 47.66094 8.11414 6010 ft 301 kts 342°
2026-04-26 22:28 47.68122 8.11027 5509 ft 293 kts
2026-04-26 22:28 47.70012 8.11973 5016 ft 286 kts 34°
2026-04-26 22:28 47.71340 8.13984 4583 ft 261 kts 63°
2026-04-26 22:29 47.71752 8.16406 4451 ft 234 kts 93°
2026-04-26 22:29 47.71264 8.18616 4316 ft 223 kts 122°
2026-04-26 22:29 47.70396 8.20477 4161 ft 216 kts 124°
2026-04-26 22:29 47.69523 8.22290 4046 ft 215 kts 123°
2026-04-26 22:30 47.68674 8.24025 4031 ft 202 kts 123°
2026-04-26 22:30 47.67857 8.25689 4026 ft 198 kts 124°
2026-04-26 22:30 47.67065 8.27334 4019 ft 195 kts 126°
2026-04-26 22:30 47.66170 8.28842 4023 ft 195 kts 131°
2026-04-26 22:31 47.65213 8.30237 4025 ft 195 kts 134°
2026-04-26 22:31 47.64224 8.31617 4022 ft 194 kts 134°
2026-04-26 22:31 47.63235 8.32983 4022 ft 194 kts 134°
2026-04-26 22:31 47.62246 8.34347 4020 ft 195 kts 135°
2026-04-26 22:32 47.61252 8.35716 4022 ft 194 kts 134°
2026-04-26 22:32 47.60315 8.37002 4026 ft 173 kts 134°
2026-04-26 22:32 47.59473 8.38159 4020 ft 159 kts 134°
2026-04-26 22:32 47.58672 8.39261 4014 ft 155 kts 133°
2026-04-26 22:33 47.57886 8.40343 3948 ft 154 kts 133°
2026-04-26 22:33 47.56333 8.42477 3610 ft 151 kts 133°
2026-04-26 22:33 47.55568 8.43526 3424 ft 147 kts 132°
2026-04-26 22:34 47.54841 8.44523 3223 ft 143 kts 132°
2026-04-26 22:34 47.54118 8.45514 3036 ft 140 kts 132°
2026-04-26 22:34 47.53404 8.46493 2847 ft 140 kts 131°
2026-04-26 22:34 47.52689 8.47473 2661 ft 140 kts 131°
2026-04-26 22:35 47.51972 8.48456 2476 ft 141 kts 133°
2026-04-26 22:35 47.51252 8.49442 2270 ft 142 kts 135°
2026-04-26 22:35 47.50523 8.50438 2109 ft 143 kts 135°
2026-04-26 22:35 47.49802 8.51460 1889 ft 144 kts 136°
2026-04-26 22:36 47.49054 8.52452 1680 ft 144 kts 136°
2026-04-26 22:36 47.48317 8.53461 1459 ft 144 kts 136°
2026-04-26 22:36 47.47590 8.54450 1399 ft 137 kts 136°
2026-04-26 22:36 47.47021 8.55235 1395 ft 85 kts 136°
2026-04-26 22:37 47.46702 8.55675 1400 ft 52 kts 138°
2026-04-26 22:37 47.46485 8.55909 1397 ft 27 kts 158°
2026-04-26 22:37 47.46369 8.55963 1403 ft 14 kts 167°
2026-04-26 22:37 47.46279 8.55989 1398 ft 12 kts 169°
2026-04-26 22:38 47.46200 8.56005 1404 ft 10 kts 179°
2026-04-26 22:38 47.46132 8.55997 1400 ft 10 kts 186°
2026-04-26 22:38 47.46054 8.55984 1402 ft 12 kts 186°
2026-04-26 22:38 47.45963 8.55966 1402 ft 15 kts 193°
2026-04-26 22:39 47.45847 8.55903 1401 ft 21 kts 201°
2026-04-26 22:39 47.45695 8.55867 1399 ft 20 kts 186°
2026-04-26 22:39 47.45582 8.55847 1399 ft 8 kts 185°
2026-04-26 22:39 47.45517 8.55846 1399 ft 10 kts 162°
2026-04-26 22:40 47.45488 8.55944 1405 ft 9 kts 128°
2026-04-26 22:40 47.45429 8.55949 1397 ft 8 kts 186°
2026-04-26 22:40 47.45415 8.55947 1397 ft 2 kts 186°
2026-04-26 22:40 47.45414 8.55946 1397 ft 0 kts 186°